createdAt,value
2023-10-23T00:02:10.142Z,70.59
2023-10-23T00:04:38.668Z,71.53
2023-10-23T00:07:07.002Z,72.68
2023-10-23T00:09:35.130Z,73.27
2023-10-23T00:12:03.656Z,73.50
2023-10-23T00:14:31.661Z,73.34
2023-10-23T00:16:59.667Z,73.60
2023-10-23T00:19:28.235Z,73.57
2023-10-23T00:21:56.297Z,74.16
2023-10-23T00:24:24.455Z,73.68
2023-10-23T00:26:52.552Z,74.05
2023-10-23T00:29:20.631Z,74.79
2023-10-23T00:31:48.679Z,74.72
2023-10-23T00:34:16.850Z,74.57
2023-10-23T00:36:46.160Z,74.84
2023-10-23T00:39:15.390Z,74.73
2023-10-23T00:41:43.888Z,74.54
2023-10-23T00:44:12.028Z,74.67
2023-10-23T00:46:40.383Z,74.82
2023-10-23T00:49:09.541Z,74.59
2023-10-23T00:51:38.080Z,75.20
2023-10-23T00:54:07.370Z,76.01
2023-10-23T00:56:35.980Z,75.64
2023-10-23T00:59:04.011Z,75.56
2023-10-23T01:01:34.468Z,76.52
2023-10-23T01:04:04.951Z,76.34
2023-10-23T01:06:33.224Z,75.91
2023-10-23T01:09:01.362Z,75.62
2023-10-23T01:11:29.506Z,76.50
2023-10-23T01:13:58.555Z,76.11
2023-10-23T01:16:26.754Z,75.18
2023-10-23T01:18:54.923Z,75.68
2023-10-23T01:21:23.078Z,77.44
2023-10-23T01:23:52.885Z,79.34
2023-10-23T01:26:20.945Z,80.07
2023-10-23T01:28:48.944Z,80.08
2023-10-23T01:31:17.909Z,79.75
2023-10-23T01:33:46.904Z,80.40
2023-10-23T01:36:15.206Z,80.22
2023-10-23T01:38:43.958Z,82.31
2023-10-23T01:41:12.256Z,83.09
2023-10-23T01:43:40.321Z,84.12
2023-10-23T01:46:08.358Z,84.54
2023-10-23T01:48:36.412Z,85.13
2023-10-23T01:51:04.574Z,84.17
2023-10-23T01:53:32.726Z,84.33
2023-10-23T01:56:05.530Z,84.78
2023-10-23T01:58:33.505Z,85.00
2023-10-23T02:01:01.720Z,85.21
2023-10-23T02:03:31.382Z,85.05
2023-10-23T02:05:59.673Z,84.62
2023-10-23T02:08:27.714Z,84.77
2023-10-23T02:10:55.783Z,83.89
2023-10-23T02:13:23.818Z,83.82
2023-10-23T02:15:51.928Z,83.77
2023-10-23T02:18:20.166Z,83.68
2023-10-23T02:20:48.266Z,84.26
2023-10-23T02:23:19.093Z,84.23
2023-10-23T02:25:47.632Z,84.22
2023-10-23T02:28:15.769Z,84.64
2023-10-23T02:30:43.871Z,84.70
2023-10-23T02:33:12.207Z,85.12
2023-10-23T02:35:40.184Z,85.12
2023-10-23T02:38:08.261Z,85.52
2023-10-23T02:40:36.711Z,85.42
2023-10-23T02:43:04.692Z,85.51
2023-10-23T02:45:36.197Z,85.13
2023-10-23T02:48:05.468Z,84.92
2023-10-23T02:50:34.239Z,85.29
2023-10-23T02:53:02.325Z,85.37
2023-10-23T02:55:30.666Z,84.53
2023-10-23T02:58:00.659Z,84.81
2023-10-23T03:00:28.853Z,84.71
2023-10-23T03:02:56.976Z,84.52
2023-10-23T03:05:25.232Z,84.03
2023-10-23T03:07:53.196Z,83.49
2023-10-23T03:10:21.259Z,83.38
2023-10-23T03:12:49.381Z,83.13
2023-10-23T03:15:17.690Z,83.17
2023-10-23T03:17:45.895Z,83.23
2023-10-23T03:20:14.020Z,83.36
2023-10-23T03:22:42.037Z,83.67
2023-10-23T03:25:10.393Z,84.43
2023-10-23T03:27:38.526Z,85.02
2023-10-23T03:30:09.465Z,85.53
2023-10-23T03:32:37.460Z,85.62
2023-10-23T03:35:06.047Z,86.21
2023-10-23T03:37:34.038Z,86.54
2023-10-23T03:40:02.127Z,86.52
2023-10-23T03:42:30.334Z,88.19
2023-10-23T03:44:58.405Z,87.95
2023-10-23T03:47:26.473Z,88.15
2023-10-23T03:49:54.651Z,87.30
2023-10-23T03:52:22.831Z,87.20
2023-10-23T03:54:50.905Z,87.21
2023-10-23T03:57:19.266Z,87.54
2023-10-23T03:59:47.345Z,87.16
2023-10-23T04:02:15.308Z,85.59
2023-10-23T04:04:43.450Z,85.62
2023-10-23T04:07:11.623Z,84.29
2023-10-23T04:09:39.990Z,85.11
2023-10-23T04:12:08.590Z,86.15
2023-10-23T04:14:36.766Z,86.42
2023-10-23T04:17:05.537Z,83.82
2023-10-23T04:19:33.657Z,81.60
2023-10-23T04:22:01.680Z,85.63
2023-10-23T04:24:31.132Z,83.80
2023-10-23T04:26:59.194Z,82.73
2023-10-23T04:29:27.150Z,82.96
2023-10-23T04:31:55.179Z,84.00
2023-10-23T04:34:23.257Z,85.33
2023-10-23T04:36:51.367Z,86.35
2023-10-23T04:39:19.436Z,87.63
2023-10-23T04:41:47.408Z,86.19
2023-10-23T04:44:16.063Z,86.43
2023-10-23T04:46:47.419Z,85.12
2023-10-23T04:49:15.599Z,85.24
2023-10-23T04:51:43.752Z,85.79
2023-10-23T04:54:12.024Z,84.24
2023-10-23T04:56:40.789Z,83.56
2023-10-23T04:59:09.151Z,83.83
2023-10-23T05:01:37.273Z,84.42
2023-10-23T05:04:05.711Z,84.40
2023-10-23T05:06:33.982Z,83.52
2023-10-23T05:09:02.072Z,82.07
2023-10-23T05:11:31.360Z,82.94
2023-10-23T05:14:00.020Z,83.56
2023-10-23T05:16:28.353Z,83.37
2023-10-23T05:18:56.526Z,82.64
2023-10-23T05:21:24.572Z,82.22
2023-10-23T05:23:52.736Z,82.65
2023-10-23T05:26:21.400Z,81.81
2023-10-23T05:28:52.761Z,80.22
2023-10-23T05:31:21.358Z,80.64
2023-10-23T05:33:50.630Z,79.83
2023-10-23T05:36:18.793Z,78.21
2023-10-23T05:38:46.923Z,77.40
2023-10-23T05:41:15.368Z,77.49
2023-10-23T05:43:45.333Z,76.91
2023-10-23T05:46:13.653Z,74.58
2023-10-23T05:48:42.108Z,72.15
2023-10-23T05:51:10.240Z,68.12
2023-10-23T05:53:38.313Z,67.26
2023-10-23T05:56:07.304Z,65.30
2023-10-23T05:58:36.671Z,63.61
2023-10-23T06:01:06.550Z,61.23
2023-10-23T06:03:35.527Z,59.22
2023-10-23T06:06:04.928Z,58.01
2023-10-23T06:08:33.137Z,57.35
2023-10-23T06:11:01.981Z,56.53
2023-10-23T06:13:30.104Z,53.37
2023-10-23T06:16:04.326Z,52.82
2023-10-23T06:18:33.632Z,52.61
2023-10-23T06:21:04.900Z,52.32
2023-10-23T06:23:38.264Z,51.65
2023-10-23T06:26:07.120Z,50.09
2023-10-23T06:28:35.624Z,48.32
2023-10-23T06:31:06.634Z,47.38
2023-10-23T06:33:36.371Z,47.29
2023-10-23T06:36:09.332Z,47.78
2023-10-23T06:38:37.922Z,47.86
2023-10-23T06:41:06.847Z,47.39
2023-10-23T06:43:35.721Z,47.05
2023-10-23T06:46:07.586Z,47.93
2023-10-23T06:48:35.932Z,48.68
2023-10-23T06:51:05.316Z,50.01
2023-10-23T06:53:33.646Z,50.64
2023-10-23T06:56:02.360Z,50.90
2023-10-23T06:58:30.422Z,49.57
2023-10-23T07:01:05.302Z,48.54
2023-10-23T07:03:33.583Z,48.42
2023-10-23T07:06:09.013Z,46.39
2023-10-23T07:08:40.345Z,44.25
2023-10-23T07:11:19.305Z,45.30
2023-10-23T07:13:47.380Z,50.43
2023-10-23T07:16:16.436Z,53.36
2023-10-23T07:18:45.088Z,53.50
2023-10-23T07:21:15.998Z,54.52
2023-10-23T07:23:44.514Z,56.51
2023-10-23T07:26:14.300Z,55.05
2023-10-23T07:28:42.708Z,53.44
2023-10-23T07:31:12.047Z,52.72
2023-10-23T07:33:40.774Z,51.80
2023-10-23T07:36:13.741Z,51.74
2023-10-23T07:38:43.643Z,52.95
2023-10-23T07:41:12.891Z,53.53
2023-10-23T07:43:41.102Z,53.40
2023-10-23T07:46:16.377Z,53.41
2023-10-23T07:48:46.108Z,53.08
2023-10-23T07:51:14.830Z,53.07
2023-10-23T07:53:43.085Z,52.87
2023-10-23T07:56:14.068Z,52.91
2023-10-23T07:58:42.818Z,53.11
2023-10-23T08:01:14.779Z,52.76
2023-10-23T08:03:43.361Z,52.22
2023-10-23T08:06:12.601Z,51.77
2023-10-23T08:08:41.979Z,51.27
2023-10-23T08:11:11.290Z,51.37
2023-10-23T08:13:39.809Z,51.19
2023-10-23T08:16:08.488Z,50.89
2023-10-23T08:18:40.887Z,50.36
2023-10-23T08:21:14.151Z,49.53
2023-10-23T08:23:43.617Z,48.51
2023-10-23T08:26:11.635Z,47.94
2023-10-23T08:28:55.055Z,46.91
2023-10-23T08:31:38.323Z,44.95
2023-10-23T08:34:08.813Z,44.64
2023-10-23T08:36:37.582Z,44.49
2023-10-23T08:39:06.560Z,44.66
2023-10-23T08:41:35.836Z,44.89
2023-10-23T08:44:04.415Z,44.39
2023-10-23T08:46:34.311Z,44.45
2023-10-23T08:49:03.613Z,44.75
2023-10-23T08:51:34.591Z,45.52
2023-10-23T08:54:10.850Z,45.51
2023-10-23T08:56:44.038Z,44.97
2023-10-23T08:59:12.933Z,45.56
2023-10-23T09:01:43.657Z,45.59
2023-10-23T09:04:13.195Z,45.55
2023-10-23T09:06:43.765Z,45.56
2023-10-23T09:09:13.099Z,45.10
2023-10-23T09:11:51.863Z,44.99
2023-10-23T09:14:25.037Z,44.69
2023-10-23T09:16:54.964Z,44.89
2023-10-23T09:19:40.351Z,45.15
2023-10-23T09:22:09.584Z,45.19
2023-10-23T09:24:38.529Z,45.17
2023-10-23T09:27:06.871Z,44.89
2023-10-23T09:29:36.421Z,44.60
2023-10-23T09:32:06.519Z,44.55
2023-10-23T09:34:40.434Z,44.48
2023-10-23T09:37:08.950Z,44.67
2023-10-23T09:39:39.479Z,44.74
2023-10-23T09:42:08.745Z,44.68
2023-10-23T09:44:38.366Z,44.49
2023-10-23T09:47:07.227Z,44.56
2023-10-23T09:49:35.620Z,44.50
2023-10-23T09:52:08.398Z,44.27
2023-10-23T09:54:39.979Z,44.21
2023-10-23T09:57:09.100Z,44.24
2023-10-23T09:59:43.980Z,44.37
2023-10-23T10:02:14.815Z,44.13
2023-10-23T10:04:52.276Z,44.30
2023-10-23T10:07:26.496Z,44.30
2023-10-23T10:09:55.608Z,44.02
2023-10-23T10:12:26.124Z,43.54
2023-10-23T10:14:57.456Z,43.86
2023-10-23T10:17:26.537Z,43.75
2023-10-23T10:19:54.992Z,43.57
2023-10-23T10:22:30.648Z,43.48
2023-10-23T10:24:59.518Z,43.28
2023-10-23T10:27:28.641Z,43.02
2023-10-23T10:29:56.936Z,43.14
2023-10-23T10:32:25.185Z,42.93
2023-10-23T10:34:56.425Z,43.15
2023-10-23T10:37:27.908Z,42.53
2023-10-23T10:39:56.108Z,43.14
2023-10-23T10:42:25.050Z,43.21
2023-10-23T10:44:58.170Z,44.21
2023-10-23T10:47:35.470Z,44.40
2023-10-23T10:50:05.000Z,43.50
2023-10-23T10:52:37.526Z,42.33
2023-10-23T10:55:06.204Z,42.38
2023-10-23T10:57:35.374Z,42.38
2023-10-23T11:00:04.619Z,43.32
2023-10-23T11:02:33.036Z,43.59
2023-10-23T11:05:07.488Z,42.70
2023-10-23T11:07:35.522Z,43.30
2023-10-23T11:10:05.120Z,44.61
2023-10-23T11:12:33.700Z,44.08
2023-10-23T11:15:01.823Z,43.71
2023-10-23T11:17:30.171Z,42.94
2023-10-23T11:19:59.890Z,42.58
2023-10-23T11:22:28.095Z,41.95
2023-10-23T11:24:56.571Z,41.05
2023-10-23T11:27:24.723Z,41.49
2023-10-23T11:29:53.306Z,41.07
2023-10-23T11:32:21.308Z,40.94
2023-10-23T11:34:49.593Z,40.51
2023-10-23T11:37:19.273Z,40.49
2023-10-23T11:39:48.574Z,42.39
2023-10-23T11:42:17.376Z,42.89
2023-10-23T11:44:47.309Z,43.07
2023-10-23T11:47:18.087Z,42.89
2023-10-23T11:49:50.279Z,42.43
2023-10-23T11:52:18.353Z,42.66
2023-10-23T11:54:46.552Z,43.11
2023-10-23T11:57:18.037Z,42.97
2023-10-23T11:59:48.164Z,43.08
2023-10-23T12:02:16.795Z,43.51
2023-10-23T12:04:45.052Z,43.43
2023-10-23T12:07:13.765Z,43.86
2023-10-23T12:09:41.903Z,44.35
2023-10-23T12:12:10.257Z,44.86
2023-10-23T12:14:39.903Z,45.55
2023-10-23T12:17:09.801Z,45.74
2023-10-23T12:19:38.246Z,45.83
2023-10-23T12:22:06.831Z,45.98
2023-10-23T12:24:35.098Z,45.17
2023-10-23T12:27:03.263Z,44.60
2023-10-23T12:29:31.437Z,44.81
2023-10-23T12:32:02.229Z,44.49
2023-10-23T12:34:32.528Z,44.23
2023-10-23T12:37:01.073Z,44.09
2023-10-23T12:39:29.423Z,44.47
2023-10-23T12:41:57.989Z,44.55
2023-10-23T12:44:26.880Z,45.22
2023-10-23T12:46:55.092Z,45.20
2023-10-23T12:49:23.464Z,45.35
2023-10-23T12:51:51.480Z,45.42
2023-10-23T12:54:19.500Z,45.93
2023-10-23T12:56:47.628Z,46.62
2023-10-23T12:59:15.580Z,46.81
2023-10-23T13:01:43.801Z,46.73
2023-10-23T13:04:11.888Z,46.42
2023-10-23T13:06:40.228Z,45.80
2023-10-23T13:09:08.543Z,45.61
2023-10-23T13:11:36.781Z,45.19
2023-10-23T13:14:05.977Z,44.96
2023-10-23T13:16:34.202Z,45.04
2023-10-23T13:19:03.247Z,45.04
2023-10-23T13:21:34.838Z,45.48
2023-10-23T13:24:06.154Z,45.58
2023-10-23T13:26:34.873Z,45.49
2023-10-23T13:29:02.922Z,45.52
2023-10-23T13:31:31.410Z,45.44
2023-10-23T13:33:59.604Z,45.43
2023-10-23T13:36:28.020Z,45.29
2023-10-23T13:38:56.506Z,45.14
2023-10-23T13:41:24.518Z,45.66
2023-10-23T13:43:52.614Z,45.66
2023-10-23T13:46:20.864Z,45.65
2023-10-23T13:48:49.284Z,45.63
2023-10-23T13:51:17.374Z,45.89
2023-10-23T13:53:45.769Z,45.79
2023-10-23T13:56:13.788Z,45.83
2023-10-23T13:58:41.990Z,45.74
2023-10-23T14:01:10.400Z,46.23
2023-10-23T14:03:39.177Z,45.94
2023-10-23T14:06:09.034Z,45.96
2023-10-23T14:09:40.257Z,45.93
2023-10-23T14:11:57.868Z,46.25
2023-10-23T14:14:14.741Z,46.31
2023-10-23T14:16:42.861Z,46.05
2023-10-23T14:19:14.124Z,45.58
2023-10-23T14:21:44.603Z,45.72
2023-10-23T14:24:14.037Z,45.59
2023-10-23T14:26:42.535Z,45.80
2023-10-23T14:29:10.772Z,45.86
2023-10-23T14:31:38.911Z,45.93
2023-10-23T14:34:07.137Z,45.69
2023-10-23T14:36:35.258Z,46.22
2023-10-23T14:39:03.456Z,46.31
2023-10-23T14:41:31.608Z,46.69
2023-10-23T14:44:00.748Z,46.95
2023-10-23T14:46:29.073Z,47.32
2023-10-23T14:48:57.219Z,47.98
2023-10-23T14:51:25.574Z,48.34
2023-10-23T14:53:53.602Z,48.60
2023-10-23T14:56:21.701Z,49.37
2023-10-23T14:58:49.833Z,49.04
2023-10-23T15:01:18.063Z,49.31
2023-10-23T15:03:46.397Z,48.87
2023-10-23T15:06:14.741Z,48.56
2023-10-23T15:08:43.818Z,48.88
2023-10-23T15:11:15.695Z,48.30
2023-10-23T15:13:43.747Z,48.94
2023-10-23T15:16:11.957Z,49.70
2023-10-23T15:18:39.960Z,49.77
2023-10-23T15:21:08.538Z,49.91
2023-10-23T15:23:36.817Z,50.10
2023-10-23T15:26:05.400Z,50.07
2023-10-23T15:28:37.166Z,51.08
2023-10-23T15:31:06.503Z,51.40
2023-10-23T15:33:36.984Z,51.92
2023-10-23T15:36:06.106Z,51.49
2023-10-23T15:38:35.520Z,52.73
2023-10-23T15:41:10.507Z,52.54
2023-10-23T15:43:39.275Z,53.57
2023-10-23T15:46:14.713Z,53.28
2023-10-23T15:48:43.513Z,53.76
2023-10-23T15:51:12.105Z,54.14
2023-10-23T15:53:40.256Z,54.79
2023-10-23T15:56:09.050Z,54.65
2023-10-23T15:58:37.739Z,55.65
2023-10-23T16:01:05.924Z,56.26
2023-10-23T16:03:35.594Z,55.09
2023-10-23T16:06:05.382Z,54.89
2023-10-23T16:08:33.439Z,55.11
2023-10-23T16:11:01.624Z,55.65
2023-10-23T16:13:38.219Z,55.56
2023-10-23T16:16:14.286Z,55.86
2023-10-23T16:18:45.977Z,56.43
2023-10-23T16:21:15.417Z,57.56
2023-10-23T16:23:44.081Z,61.25
2023-10-23T16:26:12.211Z,61.80
2023-10-23T16:28:40.498Z,61.83
2023-10-23T16:31:14.076Z,63.04
2023-10-23T16:33:42.619Z,62.37
2023-10-23T16:36:10.782Z,58.15
2023-10-23T16:38:38.863Z,58.51
2023-10-23T16:41:06.994Z,60.37
2023-10-23T16:43:40.981Z,58.39
2023-10-23T16:46:12.595Z,58.79
2023-10-23T16:48:45.627Z,61.43
2023-10-23T16:51:13.790Z,62.77
2023-10-23T16:53:42.187Z,63.36
2023-10-23T16:56:10.195Z,61.99
2023-10-23T16:58:38.325Z,62.53
2023-10-23T17:01:09.835Z,63.88
2023-10-23T17:03:42.017Z,63.26
2023-10-23T17:06:10.449Z,64.68
2023-10-23T17:08:38.567Z,63.32
2023-10-23T17:11:07.464Z,62.27
2023-10-23T17:13:35.800Z,67.28
2023-10-23T17:16:07.213Z,67.99
2023-10-23T17:18:35.650Z,68.07
2023-10-23T17:21:03.940Z,66.69
2023-10-23T17:23:32.328Z,63.40
2023-10-23T17:26:00.763Z,65.81
2023-10-23T17:28:28.986Z,67.77
2023-10-23T17:30:58.023Z,67.89
2023-10-23T17:33:26.862Z,67.67
2023-10-23T17:35:57.034Z,67.57
2023-10-23T17:38:25.580Z,68.36
2023-10-23T17:40:54.144Z,68.40
2023-10-23T17:43:22.316Z,69.28
2023-10-23T17:45:50.485Z,68.72
2023-10-23T17:48:18.459Z,69.11
2023-10-23T17:50:47.071Z,69.76
2023-10-23T17:53:15.107Z,69.36
2023-10-23T17:55:43.335Z,68.96
2023-10-23T17:58:12.246Z,67.99
2023-10-23T18:00:41.234Z,68.91
2023-10-23T18:03:09.575Z,68.98
2023-10-23T18:05:40.281Z,68.94
2023-10-23T18:08:08.338Z,68.66
2023-10-23T18:10:38.937Z,69.58
2023-10-23T18:13:07.361Z,69.93
2023-10-23T18:15:35.482Z,70.57
2023-10-23T18:18:03.648Z,71.16
2023-10-23T18:20:31.702Z,71.49
2023-10-23T18:23:00.542Z,71.77
2023-10-23T18:25:28.727Z,71.72
2023-10-23T18:27:56.996Z,71.72
2023-10-23T18:30:30.768Z,71.62
2023-10-23T18:32:59.541Z,70.58
2023-10-23T18:35:28.900Z,71.18
2023-10-23T18:37:57.326Z,70.69
2023-10-23T18:40:27.617Z,71.21
2023-10-23T18:43:03.759Z,71.49
2023-10-23T18:45:32.026Z,71.39
2023-10-23T18:48:03.252Z,71.41
2023-10-23T18:50:31.633Z,71.39
2023-10-23T18:53:04.244Z,71.51
2023-10-23T18:55:32.270Z,71.40
2023-10-23T18:58:01.231Z,71.74
2023-10-23T19:00:29.769Z,71.31
2023-10-23T19:02:57.995Z,71.05
2023-10-23T19:05:26.313Z,70.81
2023-10-23T19:07:54.382Z,70.56
2023-10-23T19:10:22.633Z,70.75
2023-10-23T19:12:50.629Z,70.87
2023-10-23T19:15:18.740Z,70.28
2023-10-23T19:17:46.976Z,69.54
2023-10-23T19:20:15.277Z,69.60
2023-10-23T19:22:43.303Z,70.31
2023-10-23T19:25:11.477Z,70.90
2023-10-23T19:27:40.686Z,71.16
2023-10-23T19:30:13.550Z,70.94
2023-10-23T19:32:42.312Z,71.17
2023-10-23T19:35:12.808Z,71.03
2023-10-23T19:37:43.221Z,70.81
2023-10-23T19:40:12.663Z,71.01
2023-10-23T19:42:43.735Z,70.78
2023-10-23T19:45:12.037Z,70.89
2023-10-23T19:48:00.193Z,70.77
2023-10-23T19:50:46.949Z,70.87
2023-10-23T19:53:41.483Z,71.30
2023-10-23T19:56:31.881Z,71.66
2023-10-23T19:59:01.134Z,71.77
2023-10-23T20:01:29.761Z,71.59
2023-10-23T20:03:57.930Z,71.87
2023-10-23T20:06:26.697Z,71.93
2023-10-23T20:08:54.840Z,72.23
2023-10-23T20:11:22.987Z,72.41
2023-10-23T20:13:51.180Z,72.44
2023-10-23T20:16:19.360Z,72.64
2023-10-23T20:18:47.737Z,72.48
2023-10-23T20:21:16.451Z,72.76
2023-10-23T20:23:44.521Z,72.77
2023-10-23T20:26:13.215Z,73.52
2023-10-23T20:28:41.305Z,73.65
2023-10-23T20:31:23.225Z,73.20
2023-10-23T20:33:51.425Z,73.43
2023-10-23T20:36:22.383Z,73.11
2023-10-23T20:38:50.382Z,73.44
2023-10-23T20:41:19.602Z,73.58
2023-10-23T20:43:49.677Z,74.12
2023-10-23T20:46:18.092Z,73.68
2023-10-23T20:48:46.165Z,73.90
2023-10-23T20:51:15.015Z,73.96
2023-10-23T20:53:43.632Z,74.06
2023-10-23T20:56:11.697Z,74.11
2023-10-23T20:58:39.970Z,73.90
2023-10-23T21:01:08.586Z,73.61
2023-10-23T21:03:37.208Z,73.44
2023-10-23T21:06:06.272Z,73.98
2023-10-23T21:08:37.952Z,73.61
2023-10-23T21:11:07.059Z,73.89
2023-10-23T21:13:35.787Z,74.17
2023-10-23T21:16:04.916Z,75.08
2023-10-23T21:18:33.357Z,76.57
2023-10-23T21:21:01.490Z,76.57
2023-10-23T21:23:30.309Z,75.26
2023-10-23T21:26:01.503Z,75.17
2023-10-23T21:28:29.779Z,75.51
2023-10-23T21:30:57.922Z,75.45
2023-10-23T21:33:26.065Z,74.38
2023-10-23T21:35:54.196Z,74.39
2023-10-23T21:38:22.284Z,74.64
2023-10-23T21:40:50.459Z,75.08
2023-10-23T21:43:19.701Z,75.64
2023-10-23T21:45:49.050Z,76.25
2023-10-23T21:48:19.922Z,76.72
2023-10-23T21:50:48.450Z,76.52
2023-10-23T21:53:16.695Z,76.91
2023-10-23T21:55:44.953Z,75.17
2023-10-23T21:58:13.109Z,75.03
2023-10-23T22:00:41.977Z,75.34
2023-10-23T22:03:10.305Z,75.74
2023-10-23T22:05:39.030Z,75.38
2023-10-23T22:08:07.173Z,74.58
2023-10-23T22:10:35.391Z,74.72
2023-10-23T22:13:04.157Z,75.61
2023-10-23T22:15:32.291Z,76.03
2023-10-23T22:18:00.531Z,76.23
2023-10-23T22:20:28.584Z,75.84
2023-10-23T22:22:56.819Z,76.17
2023-10-23T22:25:24.880Z,76.97
2023-10-23T22:27:52.926Z,77.05
2023-10-23T22:30:20.961Z,76.91
2023-10-23T22:33:00.189Z,77.28
2023-10-23T22:35:37.082Z,77.50
2023-10-23T22:38:09.936Z,76.60
2023-10-23T22:40:38.244Z,76.27
2023-10-23T22:43:06.385Z,76.17
2023-10-23T22:45:39.015Z,75.22
2023-10-23T22:48:15.522Z,76.58
2023-10-23T22:50:43.764Z,77.10
2023-10-23T22:53:12.007Z,76.11
2023-10-23T22:55:40.380Z,76.08
2023-10-23T22:58:11.035Z,75.18
2023-10-23T23:00:39.366Z,74.73
2023-10-23T23:03:07.553Z,73.51
2023-10-23T23:05:36.681Z,73.87
2023-10-23T23:08:04.852Z,73.52
2023-10-23T23:10:33.040Z,73.45
2023-10-23T23:13:01.192Z,72.61
2023-10-23T23:15:29.362Z,70.74
2023-10-23T23:17:59.642Z,72.62
2023-10-23T23:20:30.567Z,74.07
2023-10-23T23:22:58.639Z,74.84
2023-10-23T23:25:26.601Z,75.00
2023-10-23T23:27:54.638Z,72.91
2023-10-23T23:30:22.621Z,72.93
2023-10-23T23:32:50.719Z,74.88
2023-10-23T23:35:18.732Z,76.21
2023-10-23T23:37:46.871Z,77.93
2023-10-23T23:40:14.914Z,78.45
2023-10-23T23:42:42.958Z,78.38
2023-10-23T23:45:11.064Z,76.88
2023-10-23T23:47:39.116Z,75.27
2023-10-23T23:50:07.373Z,74.27
2023-10-23T23:52:35.737Z,73.62
2023-10-23T23:55:03.929Z,73.20
2023-10-23T23:57:33.349Z,73.21
